createdAt,value
2023-05-25T00:00:26.078Z,12.48
2023-05-25T00:02:56.477Z,12.48
2023-05-25T00:05:28.886Z,12.41
2023-05-25T00:07:57.964Z,12.48
2023-05-25T00:10:27.222Z,12.65
2023-05-25T00:12:57.732Z,12.54
2023-05-25T00:15:26.870Z,12.43
2023-05-25T00:17:56.181Z,12.64
2023-05-25T00:20:25.582Z,12.52
2023-05-25T00:22:56.286Z,12.58
2023-05-25T00:25:25.593Z,12.72
2023-05-25T00:27:54.601Z,12.81
2023-05-25T00:30:25.114Z,13.01
2023-05-25T00:32:55.661Z,13.04
2023-05-25T00:35:24.902Z,13.04
2023-05-25T00:37:54.177Z,12.99
2023-05-25T00:40:26.205Z,12.95
2023-05-25T00:42:55.516Z,12.93
2023-05-25T00:45:26.207Z,12.98
2023-05-25T00:47:56.355Z,12.89
2023-05-25T00:50:42.967Z,12.79
2023-05-25T00:53:13.908Z,12.66
2023-05-25T00:55:51.506Z,12.65
2023-05-25T00:58:25.598Z,12.65
2023-05-25T01:00:59.049Z,12.50
2023-05-25T01:03:36.275Z,12.37
2023-05-25T01:06:08.581Z,12.33
2023-05-25T01:08:39.596Z,12.26
2023-05-25T01:11:13.380Z,12.25
2023-05-25T01:13:44.136Z,12.25
2023-05-25T01:16:17.206Z,12.19
2023-05-25T01:18:48.106Z,12.14
2023-05-25T01:21:29.010Z,12.17
2023-05-25T01:24:08.398Z,12.21
2023-05-25T01:26:45.775Z,12.21
2023-05-25T01:29:15.822Z,12.23
2023-05-25T01:31:46.755Z,12.15
2023-05-25T01:34:17.726Z,12.08
2023-05-25T01:36:48.318Z,11.89
2023-05-25T01:39:17.468Z,11.88
2023-05-25T01:41:46.790Z,11.80
2023-05-25T01:44:18.804Z,12.14
2023-05-25T01:46:55.423Z,12.24
2023-05-25T01:49:31.154Z,12.07
2023-05-25T01:52:14.057Z,11.90
2023-05-25T01:54:48.789Z,11.87
2023-05-25T01:57:20.683Z,11.90
2023-05-25T01:59:52.981Z,11.90
2023-05-25T02:02:22.596Z,11.95
2023-05-25T02:04:54.225Z,11.93
2023-05-25T02:07:26.859Z,11.96
2023-05-25T02:09:56.457Z,11.91
2023-05-25T02:12:25.665Z,11.86
2023-05-25T02:14:54.680Z,11.71
2023-05-25T02:17:28.149Z,11.63
2023-05-25T02:19:57.433Z,11.52
2023-05-25T02:22:28.662Z,11.42
2023-05-25T02:24:57.706Z,11.33
2023-05-25T02:27:26.873Z,11.30
2023-05-25T02:29:56.003Z,11.25
2023-05-25T02:32:29.577Z,11.20
2023-05-25T02:34:58.718Z,11.12
2023-05-25T02:37:29.326Z,11.09
2023-05-25T02:39:58.407Z,11.10
2023-05-25T02:42:27.858Z,11.05
2023-05-25T02:44:56.936Z,10.99
2023-05-25T02:47:26.237Z,10.92
2023-05-25T02:49:55.507Z,10.90
2023-05-25T02:52:25.745Z,10.84
2023-05-25T02:54:56.557Z,10.80
2023-05-25T02:57:32.512Z,10.67
2023-05-25T03:00:02.538Z,10.60
2023-05-25T03:02:31.648Z,10.55
2023-05-25T03:05:03.116Z,10.78
2023-05-25T03:07:33.437Z,11.02
2023-05-25T03:10:04.165Z,10.96
2023-05-25T03:12:35.232Z,10.93
2023-05-25T03:15:09.346Z,10.91
2023-05-25T03:17:38.694Z,10.88
2023-05-25T03:20:15.769Z,10.89
2023-05-25T03:22:48.513Z,10.91
2023-05-25T03:25:19.486Z,10.95
2023-05-25T03:27:48.847Z,10.98
2023-05-25T03:30:18.087Z,11.02
2023-05-25T03:32:48.178Z,11.06
2023-05-25T03:35:17.824Z,11.15
2023-05-25T03:37:46.901Z,11.17
2023-05-25T03:40:16.056Z,11.33
2023-05-25T03:42:46.718Z,11.30
2023-05-25T03:45:16.331Z,11.20
2023-05-25T03:47:50.520Z,11.24
2023-05-25T03:50:21.997Z,11.18
2023-05-25T03:52:52.186Z,11.20
2023-05-25T03:55:21.254Z,11.22
2023-05-25T03:57:51.780Z,11.14
2023-05-25T04:00:21.098Z,11.19
2023-05-25T04:02:51.602Z,11.19
2023-05-25T04:05:20.748Z,11.16
2023-05-25T04:07:49.889Z,11.27
2023-05-25T04:10:19.077Z,11.22
2023-05-25T04:12:48.139Z,11.35
2023-05-25T04:15:21.294Z,11.42
2023-05-25T04:18:06.054Z,11.46
2023-05-25T04:20:35.575Z,11.52
2023-05-25T04:23:04.814Z,11.66
2023-05-25T04:25:34.553Z,11.73
2023-05-25T04:28:03.880Z,11.74
2023-05-25T04:30:58.141Z,11.71
2023-05-25T04:33:50.372Z,11.58
2023-05-25T04:36:27.080Z,11.77
2023-05-25T04:38:56.439Z,11.80
2023-05-25T04:41:30.359Z,11.85
2023-05-25T04:44:09.788Z,11.89
2023-05-25T04:46:45.031Z,11.79
2023-05-25T04:49:20.304Z,11.93
2023-05-25T04:51:51.666Z,12.13
2023-05-25T04:54:21.364Z,12.20
2023-05-25T04:56:53.305Z,12.30
2023-05-25T04:59:22.646Z,12.37
2023-05-25T05:01:53.192Z,12.51
2023-05-25T05:04:23.046Z,12.53
2023-05-25T05:06:52.504Z,12.46
2023-05-25T05:09:25.216Z,12.51
2023-05-25T05:11:57.355Z,12.58
2023-05-25T05:14:26.459Z,12.66
2023-05-25T05:17:09.125Z,12.64
2023-05-25T05:19:38.272Z,12.77
2023-05-25T05:22:09.953Z,12.81
2023-05-25T05:24:40.269Z,12.89
2023-05-25T05:27:09.426Z,12.83
2023-05-25T05:29:44.757Z,12.83
2023-05-25T05:32:15.348Z,12.94
2023-05-25T05:34:47.174Z,13.09
2023-05-25T05:37:30.999Z,13.18
2023-05-25T05:40:01.498Z,13.25
2023-05-25T05:42:33.065Z,13.50
2023-05-25T05:45:02.567Z,13.53
2023-05-25T05:47:33.123Z,13.55
2023-05-25T05:50:02.167Z,13.73
2023-05-25T05:52:32.225Z,13.77
2023-05-25T05:55:01.284Z,13.74
2023-05-25T05:57:30.285Z,13.82
2023-05-25T06:00:00.462Z,13.90
2023-05-25T06:02:29.652Z,13.89
2023-05-25T06:05:01.640Z,14.07
2023-05-25T06:07:35.255Z,14.12
2023-05-25T06:10:04.603Z,14.27
2023-05-25T06:12:33.765Z,14.43
2023-05-25T06:15:03.577Z,14.52
2023-05-25T06:17:32.925Z,14.58
2023-05-25T06:20:03.945Z,14.70
2023-05-25T06:22:34.635Z,14.84
2023-05-25T06:25:03.738Z,14.99
2023-05-25T06:27:32.780Z,15.17
2023-05-25T06:30:03.201Z,15.32
2023-05-25T06:32:32.415Z,15.50
2023-05-25T06:35:03.395Z,15.53
2023-05-25T06:37:35.430Z,15.55
2023-05-25T06:40:09.536Z,15.70
2023-05-25T06:42:39.227Z,15.81
2023-05-25T06:45:28.155Z,15.92
2023-05-25T06:47:57.575Z,16.02
2023-05-25T06:50:28.936Z,16.18
2023-05-25T06:52:59.791Z,16.19
2023-05-25T06:55:29.671Z,16.36
2023-05-25T06:57:59.026Z,16.50
2023-05-25T07:00:28.199Z,16.57
2023-05-25T07:02:57.291Z,16.65
2023-05-25T07:05:30.841Z,16.79
2023-05-25T07:07:59.893Z,16.94
2023-05-25T07:10:28.884Z,17.09
2023-05-25T07:12:57.990Z,17.25
2023-05-25T07:15:27.669Z,17.37
2023-05-25T07:17:59.267Z,17.50
2023-05-25T07:20:30.505Z,17.65
2023-05-25T07:23:01.186Z,17.85
2023-05-25T07:25:30.272Z,17.95
2023-05-25T07:27:59.499Z,17.99
2023-05-25T07:30:28.738Z,18.17
2023-05-25T07:32:58.284Z,18.36
2023-05-25T07:35:27.567Z,18.53
2023-05-25T07:38:02.524Z,18.68
2023-05-25T07:40:31.900Z,18.83
2023-05-25T07:43:01.218Z,18.96
2023-05-25T07:45:31.011Z,19.04
2023-05-25T07:48:00.173Z,19.18
2023-05-25T07:50:31.542Z,19.33
2023-05-25T07:53:02.315Z,19.34
2023-05-25T07:55:31.342Z,19.44
2023-05-25T07:58:00.289Z,19.69
2023-05-25T08:00:29.666Z,19.87
2023-05-25T08:02:58.887Z,19.92
2023-05-25T08:05:29.283Z,19.86
2023-05-25T08:07:58.383Z,20.01
2023-05-25T08:10:32.200Z,20.31
2023-05-25T08:13:01.310Z,20.50
2023-05-25T08:15:30.448Z,20.57
2023-05-25T08:17:59.563Z,20.59
2023-05-25T08:20:28.671Z,20.72
2023-05-25T08:22:59.212Z,20.83
2023-05-25T08:25:29.636Z,21.01
2023-05-25T08:27:59.986Z,21.26
2023-05-25T08:30:29.268Z,21.52
2023-05-25T08:32:58.338Z,21.82
2023-05-25T08:35:27.480Z,21.99
2023-05-25T08:37:56.582Z,22.00
2023-05-25T08:40:29.846Z,21.75
2023-05-25T08:42:58.909Z,21.84
2023-05-25T08:48:05.481Z,21.92
2023-05-25T08:50:35.588Z,21.94
2023-05-25T08:53:09.513Z,21.89
2023-05-25T08:55:43.620Z,21.93
2023-05-25T08:58:20.649Z,22.02
2023-05-25T09:00:56.431Z,22.30
2023-05-25T09:03:25.961Z,22.88
2023-05-25T09:05:57.599Z,23.28
2023-05-25T09:08:27.375Z,23.01
2023-05-25T09:10:58.353Z,22.58
2023-05-25T09:13:27.984Z,22.55
2023-05-25T09:15:57.088Z,22.53
2023-05-25T09:18:26.412Z,22.81
2023-05-25T09:20:56.368Z,22.59
2023-05-25T09:23:26.025Z,22.32
2023-05-25T09:25:55.944Z,22.60
2023-05-25T09:28:27.786Z,22.51
2023-05-25T09:30:57.884Z,22.28
2023-05-25T09:33:27.441Z,22.08
2023-05-25T09:35:57.117Z,22.16
2023-05-25T09:38:26.504Z,22.37
2023-05-25T09:40:56.234Z,22.78
2023-05-25T09:43:39.694Z,23.16
2023-05-25T09:46:10.774Z,23.43
2023-05-25T09:48:40.083Z,23.60
2023-05-25T09:51:09.735Z,23.77
2023-05-25T09:53:38.737Z,23.92
2023-05-25T09:56:08.171Z,23.94
2023-05-25T09:58:38.593Z,23.97
2023-05-25T10:01:07.860Z,24.13
2023-05-25T10:04:03.572Z,24.34
2023-05-25T10:06:35.010Z,24.72
2023-05-25T10:09:05.487Z,25.00
2023-05-25T10:11:36.354Z,25.29
2023-05-25T10:14:09.444Z,25.38
2023-05-25T10:16:42.315Z,25.29
2023-05-25T10:19:18.429Z,24.86
2023-05-25T10:21:56.099Z,24.84
2023-05-25T10:24:36.740Z,24.17
2023-05-25T10:27:18.427Z,23.80
2023-05-25T10:29:59.210Z,23.77
2023-05-25T10:32:29.504Z,23.83
2023-05-25T10:35:00.381Z,24.26
2023-05-25T10:37:30.662Z,24.59
2023-05-25T10:40:01.300Z,24.93
2023-05-25T10:42:31.287Z,25.21
2023-05-25T10:45:02.373Z,25.29
2023-05-25T10:47:32.350Z,25.38
2023-05-25T10:50:03.060Z,25.27
2023-05-25T10:52:33.542Z,25.20
2023-05-25T10:55:04.983Z,25.62
2023-05-25T10:57:34.421Z,26.54
2023-05-25T11:00:10.371Z,27.53
2023-05-25T11:03:00.405Z,28.00
2023-05-25T11:05:40.828Z,28.70
2023-05-25T11:08:12.527Z,29.31
2023-05-25T11:11:00.190Z,30.07
2023-05-25T11:13:41.442Z,30.60
2023-05-25T11:16:21.338Z,31.09
2023-05-25T11:18:57.809Z,30.57
2023-05-25T11:21:45.204Z,30.51
2023-05-25T11:24:18.312Z,31.26
2023-05-25T11:26:56.917Z,31.38
2023-05-25T11:29:27.380Z,31.95
2023-05-25T11:31:57.898Z,31.24
2023-05-25T11:34:28.123Z,29.92
2023-05-25T11:37:01.858Z,28.79
2023-05-25T11:39:32.021Z,27.88
2023-05-25T11:42:06.939Z,28.37
2023-05-25T11:44:38.990Z,29.31
2023-05-25T11:47:15.929Z,30.75
2023-05-25T11:49:47.279Z,31.35
2023-05-25T11:52:18.118Z,31.88
2023-05-25T11:54:47.783Z,32.47
2023-05-25T11:57:18.603Z,31.61
2023-05-25T11:59:54.629Z,31.19
2023-05-25T12:02:26.083Z,31.43
2023-05-25T12:04:56.314Z,31.63
2023-05-25T12:07:26.614Z,32.56
2023-05-25T12:10:07.835Z,33.78
2023-05-25T12:12:42.466Z,33.99
2023-05-25T12:15:14.025Z,35.25
2023-05-25T12:17:46.912Z,35.27
2023-05-25T12:20:18.549Z,36.38
2023-05-25T12:22:48.891Z,36.89
2023-05-25T12:25:22.713Z,37.22
2023-05-25T12:28:13.453Z,35.46
2023-05-25T12:30:43.884Z,35.89
2023-05-25T12:33:25.681Z,36.59
2023-05-25T12:35:55.847Z,37.30
2023-05-25T12:38:25.330Z,37.22
2023-05-25T12:41:07.254Z,36.75
2023-05-25T12:43:40.609Z,37.70
2023-05-25T12:46:09.771Z,38.49
2023-05-25T12:48:44.601Z,38.58
2023-05-25T12:51:13.875Z,39.84
2023-05-25T12:53:51.748Z,39.97
2023-05-25T12:56:27.020Z,39.47
2023-05-25T12:58:58.960Z,39.45
2023-05-25T13:01:28.136Z,39.40
2023-05-25T13:03:58.945Z,39.36
2023-05-25T13:06:28.089Z,39.83
2023-05-25T13:08:59.892Z,40.67
2023-05-25T13:11:29.045Z,41.17
2023-05-25T13:13:58.425Z,41.81
2023-05-25T13:16:28.000Z,42.49
2023-05-25T13:18:58.508Z,42.54
2023-05-25T13:21:28.353Z,41.55
2023-05-25T13:23:57.296Z,42.19
2023-05-25T13:26:26.493Z,42.23
2023-05-25T13:28:55.497Z,42.62
2023-05-25T13:31:24.631Z,43.41
2023-05-25T13:33:53.731Z,43.48
2023-05-25T13:36:24.279Z,44.13
2023-05-25T13:38:53.378Z,44.16
2023-05-25T13:41:22.403Z,44.91
2023-05-25T13:43:53.768Z,45.47
2023-05-25T13:46:34.052Z,46.00
2023-05-25T13:49:04.288Z,46.07
2023-05-25T13:51:38.311Z,46.18
2023-05-25T13:54:07.465Z,45.94
2023-05-25T13:56:36.533Z,45.63
2023-05-25T13:59:05.842Z,44.90
2023-05-25T14:01:34.910Z,45.27
2023-05-25T14:04:04.826Z,45.06
2023-05-25T14:06:35.957Z,45.36
2023-05-25T14:09:05.134Z,46.01
2023-05-25T14:11:35.332Z,46.40
2023-05-25T14:14:11.415Z,45.70
2023-05-25T14:16:45.736Z,44.63
2023-05-25T14:19:16.733Z,45.26
2023-05-25T14:21:53.840Z,45.53
2023-05-25T14:24:29.028Z,44.12
2023-05-25T14:26:58.213Z,44.87
2023-05-25T14:29:30.298Z,45.74
2023-05-25T14:31:59.467Z,47.10
2023-05-25T14:34:28.805Z,48.39
2023-05-25T14:36:59.355Z,47.09
2023-05-25T14:39:28.391Z,42.72
2023-05-25T14:41:57.516Z,36.80
2023-05-25T14:44:26.551Z,36.72
2023-05-25T14:46:58.381Z,40.28
2023-05-25T14:49:27.820Z,43.72
2023-05-25T14:51:58.378Z,44.49
2023-05-25T14:54:27.450Z,45.32
2023-05-25T14:56:56.576Z,46.18
2023-05-25T14:59:25.535Z,46.41
2023-05-25T15:01:54.690Z,46.94
2023-05-25T15:04:27.182Z,47.41
2023-05-25T15:06:56.379Z,48.07
2023-05-25T15:09:26.762Z,48.10
2023-05-25T15:11:58.935Z,48.12
2023-05-25T15:14:28.248Z,48.52
2023-05-25T15:16:57.308Z,48.20
2023-05-25T15:19:26.471Z,48.36
2023-05-25T15:21:55.462Z,48.57
2023-05-25T15:24:28.652Z,47.60
2023-05-25T15:26:57.796Z,48.49
2023-05-25T15:29:27.071Z,47.72
2023-05-25T15:31:56.197Z,45.67
2023-05-25T15:34:34.857Z,44.35
2023-05-25T15:37:04.149Z,41.89
2023-05-25T15:39:34.775Z,41.65
2023-05-25T15:42:03.873Z,43.61
2023-05-25T15:44:35.864Z,43.64
2023-05-25T15:47:05.318Z,40.64
2023-05-25T15:49:36.950Z,38.18
2023-05-25T15:52:07.269Z,36.21
2023-05-25T15:54:37.743Z,34.81
2023-05-25T15:57:07.263Z,33.79
2023-05-25T15:59:36.506Z,33.15
2023-05-25T16:02:06.239Z,32.67
2023-05-25T16:04:35.282Z,32.47
2023-05-25T16:07:04.301Z,32.67
2023-05-25T16:09:33.335Z,32.31
2023-05-25T16:12:03.816Z,31.72
2023-05-25T16:14:32.912Z,32.06
2023-05-25T16:17:02.039Z,31.67
2023-05-25T16:19:31.023Z,31.07
2023-05-25T16:22:02.387Z,31.87
2023-05-25T16:24:31.440Z,33.28
2023-05-25T16:27:00.929Z,31.95
2023-05-25T16:29:31.355Z,30.37
2023-05-25T16:32:00.603Z,29.64
2023-05-25T16:34:29.705Z,29.48
2023-05-25T16:36:58.855Z,31.85
2023-05-25T16:39:27.842Z,35.52
2023-05-25T16:41:56.937Z,36.96
2023-05-25T16:44:26.431Z,37.74
2023-05-25T16:46:56.979Z,38.06
2023-05-25T16:49:25.934Z,38.07
2023-05-25T16:51:55.502Z,35.91
2023-05-25T16:54:24.477Z,33.93
2023-05-25T16:56:53.640Z,31.89
2023-05-25T16:59:23.085Z,30.82
2023-05-25T17:01:52.412Z,29.52
2023-05-25T17:04:23.036Z,28.76
2023-05-25T17:06:54.693Z,29.41
2023-05-25T17:09:25.182Z,29.43
2023-05-25T17:11:54.278Z,30.97
2023-05-25T17:14:23.343Z,31.73
2023-05-25T17:16:52.298Z,30.55
2023-05-25T17:19:23.650Z,29.39
2023-05-25T17:21:52.706Z,28.75
2023-05-25T17:24:21.638Z,29.96
2023-05-25T17:26:51.792Z,31.40
2023-05-25T17:29:20.958Z,32.57
2023-05-25T17:31:50.175Z,33.02
2023-05-25T17:34:19.319Z,33.17
2023-05-25T17:36:49.695Z,33.06
2023-05-25T17:39:18.767Z,32.86
2023-05-25T17:41:49.765Z,32.61
2023-05-25T17:44:18.724Z,32.47
2023-05-25T17:46:47.762Z,31.85
2023-05-25T17:49:16.756Z,30.90
2023-05-25T17:51:46.791Z,29.59
2023-05-25T17:54:19.861Z,28.22
2023-05-25T17:56:49.006Z,27.92
2023-05-25T17:59:17.993Z,27.28
2023-05-25T18:01:47.341Z,26.18
2023-05-25T18:04:16.907Z,25.22
2023-05-25T18:06:46.250Z,24.51
2023-05-25T18:09:17.109Z,23.94
2023-05-25T18:11:49.893Z,23.49
2023-05-25T18:14:18.985Z,23.14
2023-05-25T18:16:49.794Z,22.84
2023-05-25T18:19:20.898Z,22.52
2023-05-25T18:21:53.030Z,22.28
2023-05-25T18:24:22.448Z,22.08
2023-05-25T18:26:53.418Z,21.87
2023-05-25T18:29:23.136Z,21.63
2023-05-25T18:31:52.333Z,21.46
2023-05-25T18:34:22.701Z,21.30
2023-05-25T18:36:51.869Z,21.11
2023-05-25T18:39:21.199Z,20.88
2023-05-25T18:41:50.595Z,20.64
2023-05-25T18:44:21.282Z,20.54
2023-05-25T18:46:52.874Z,20.45
2023-05-25T18:49:23.432Z,20.41
2023-05-25T18:51:52.575Z,20.46
2023-05-25T18:54:21.787Z,20.49
2023-05-25T18:56:51.568Z,20.54
2023-05-25T18:59:22.888Z,20.50
2023-05-25T19:01:52.904Z,20.53
2023-05-25T19:04:24.477Z,20.47
2023-05-25T19:06:53.856Z,20.41
2023-05-25T19:09:22.958Z,20.37
2023-05-25T19:11:56.200Z,20.33
2023-05-25T19:14:26.734Z,20.32
2023-05-25T19:16:58.949Z,20.35
2023-05-25T19:19:30.479Z,20.28
2023-05-25T19:21:59.875Z,20.27
2023-05-25T19:24:29.027Z,20.26
2023-05-25T19:26:58.027Z,20.22
2023-05-25T19:29:30.729Z,20.20
2023-05-25T19:31:59.759Z,20.13
2023-05-25T19:34:28.791Z,20.12
2023-05-25T19:37:07.462Z,20.07
2023-05-25T19:39:40.647Z,20.08
2023-05-25T19:42:10.189Z,20.02
2023-05-25T19:44:41.809Z,20.00
2023-05-25T19:47:12.853Z,19.94
2023-05-25T19:49:42.938Z,19.88
2023-05-25T19:52:12.145Z,19.88
2023-05-25T19:54:41.999Z,19.82
2023-05-25T19:57:11.478Z,19.71
2023-05-25T19:59:42.813Z,19.69
2023-05-25T20:02:12.336Z,19.61
2023-05-25T20:04:41.689Z,19.59
2023-05-25T20:07:12.303Z,19.53
2023-05-25T20:09:42.944Z,19.42
2023-05-25T20:12:15.057Z,19.33
2023-05-25T20:14:45.535Z,19.20
2023-05-25T20:17:40.037Z,19.04
2023-05-25T20:20:09.700Z,18.93
2023-05-25T20:22:38.700Z,18.82
2023-05-25T20:25:08.819Z,18.78
2023-05-25T20:27:38.057Z,18.77
2023-05-25T20:30:10.201Z,18.72
2023-05-25T20:32:39.392Z,18.62
2023-05-25T20:35:09.364Z,18.58
2023-05-25T20:37:38.344Z,18.43
2023-05-25T20:40:08.738Z,18.27
2023-05-25T20:42:37.803Z,18.11
2023-05-25T20:45:09.913Z,18.00
2023-05-25T20:47:41.132Z,17.88
2023-05-25T20:50:10.528Z,17.83
2023-05-25T20:52:41.663Z,17.68
2023-05-25T20:55:10.627Z,17.62
2023-05-25T20:57:39.777Z,17.60
2023-05-25T21:00:12.732Z,17.59
2023-05-25T21:02:44.507Z,17.67
2023-05-25T21:05:13.765Z,17.63
2023-05-25T21:07:42.811Z,17.57
2023-05-25T21:10:12.278Z,17.56
2023-05-25T21:12:41.460Z,17.54
2023-05-25T21:15:12.335Z,17.50
2023-05-25T21:17:41.487Z,17.46
2023-05-25T21:20:11.686Z,17.36
2023-05-25T21:22:41.167Z,17.34
2023-05-25T21:25:13.822Z,17.21
2023-05-25T21:27:42.948Z,17.02
2023-05-25T21:30:14.502Z,17.01
2023-05-25T21:32:43.567Z,17.33
2023-05-25T21:35:12.635Z,17.21
2023-05-25T21:37:41.630Z,17.05
2023-05-25T21:40:11.298Z,16.95
2023-05-25T21:42:40.397Z,16.93
2023-05-25T21:45:13.237Z,16.92
2023-05-25T21:47:43.772Z,16.83
2023-05-25T21:50:12.912Z,16.82
2023-05-25T21:52:44.895Z,16.67
2023-05-25T21:55:17.461Z,16.56
2023-05-25T21:57:48.439Z,16.60
2023-05-25T22:00:18.550Z,16.50
2023-05-25T22:02:49.207Z,16.47
2023-05-25T22:05:18.356Z,16.36
2023-05-25T22:07:47.385Z,16.26
2023-05-25T22:10:16.617Z,16.19
2023-05-25T22:12:47.801Z,16.24
2023-05-25T22:15:17.050Z,16.24
2023-05-25T22:17:46.180Z,16.43
2023-05-25T22:20:17.911Z,16.35
2023-05-25T22:22:46.945Z,16.12
2023-05-25T22:25:16.605Z,16.20
2023-05-25T22:27:45.747Z,16.20
2023-05-25T22:30:14.993Z,16.10
2023-05-25T22:32:46.961Z,16.02
2023-05-25T22:35:17.472Z,15.95
2023-05-25T22:37:46.711Z,15.73
2023-05-25T22:40:15.864Z,15.74
2023-05-25T22:42:50.059Z,15.78
2023-05-25T22:45:19.581Z,15.69
2023-05-25T22:47:49.033Z,15.87
2023-05-25T22:50:19.598Z,16.04
2023-05-25T22:52:48.753Z,16.00
2023-05-25T22:55:17.738Z,15.95
2023-05-25T22:57:46.854Z,15.95
2023-05-25T23:00:16.168Z,15.91
2023-05-25T23:02:45.433Z,15.73
2023-05-25T23:05:14.442Z,15.70
2023-05-25T23:07:44.955Z,15.66
2023-05-25T23:10:14.111Z,15.59
2023-05-25T23:12:43.344Z,15.46
2023-05-25T23:15:13.078Z,15.51
2023-05-25T23:17:42.185Z,15.35
2023-05-25T23:20:15.051Z,15.31
2023-05-25T23:22:49.494Z,15.31
2023-05-25T23:25:18.881Z,15.10
2023-05-25T23:27:48.086Z,15.04
2023-05-25T23:30:19.675Z,14.92
2023-05-25T23:32:48.692Z,14.77
2023-05-25T23:35:17.868Z,14.58
2023-05-25T23:37:48.255Z,14.57
2023-05-25T23:40:17.381Z,14.51
2023-05-25T23:42:46.493Z,14.42
2023-05-25T23:45:15.603Z,14.36
2023-05-25T23:47:44.777Z,14.33
2023-05-25T23:50:13.863Z,14.33
2023-05-25T23:52:47.479Z,14.46
2023-05-25T23:55:16.551Z,14.41
2023-05-25T23:57:52.863Z,14.63
